Terminal Aerodrome Forecast
Issued by NWS Riverton, WY

Home | Current Version | Previous Version | Text Only | Print | Product List | Glossary On
Versions: 1 2 3 4 5 6 7 8 9 10 11 12
000
FTUS45 KRIW 271121
TAFRIW
TAF
KRIW 271121Z 2712/2812 25006KT P6SM SCT100
     FM271700 21006KT P6SM SCT070 BKN120
     FM272200 34007KT P6SM VCSH SCT040 BKN070
     FM280300 35011G18KT 6SM -RA BR SCT020 BKN030
     FM281000 36015G25KT 5SM -SNRA BR SCT010 BKN020=

USA.gov is the U.S. government's official web portal to all federal, state and local government web resources and services.